Latest Coastal Weather Observations for Bunbury

IDW60701

Issued at 1:52 pm WST Tuesday 27 January 2015 (issued every 10 minutes, with the page automatically refreshed every 10 minutes)

About coastal observations | Map of coastal stations | Coastal observations for WA | Marine services | Other Formats
Station Details ID: 009965 Name: BUNBURY Lat: -33.36 Lon: 115.64 Height: 5.2 m
Data from the previous 72 hours. | See also: Recent months at Bunbury
Date/Time
WST
Temp

°C
Wind Pressure Rain
since 9am
mm
Weather Cloud Vis
km
Sea
Height
m
Swell
Dir
 
Speed
knots
Gust
knots
hPa Trend Height
m
Period
s
Dir
27/01:30pm 34.5 WSW 7 9 1007.3 - 0.0 - - - - - - -
27/01:00pm 33.9 W 8 12 1007.7 - 0.0 - - - - - - -
27/12:30pm 33.7 W 7 9 1008.0 - 0.0 - - - - - - -
27/12:00pm 35.1 NE 4 7 1008.2 - 0.0 - - - - - - -
27/11:30am 35.2 ESE 4 7 1008.6 - 0.0 - - - - - - -
27/11:00am 34.0 E 6 9 1008.9 - 0.0 - - - - - - -
27/10:30am 33.0 E 6 9 1009.3 - 0.0 - - - - - - -
27/10:00am 31.3 E 6 11 1009.6 - 0.0 - - - - - - -
27/09:30am 30.2 E 7 10 1009.7 - 0.0 - - - - - - -
27/09:00am 28.1 ENE 8 13 1009.9 - 0.0 - - - - - - -
27/08:30am 26.1 E 10 13 1009.8 - 0.0 - - - - - - -
27/08:00am 24.6 E 8 12 1010.1 - 0.0 - - - - - - -
27/07:30am 23.1 E 11 14 1010.1 - 0.0 - - - - - - -
27/07:00am 21.8 E 10 17 1010.2 - 0.0 - - - - - - -
27/06:30am 20.7 E 8 13 1010.2 - 0.0 - - - - - - -
27/06:00am 19.9 E 8 13 1010.0 - 0.0 - - - - - - -
27/05:30am 19.7 E 9 13 1009.9 - 0.0 - - - - - - -
27/05:00am 20.4 ENE 11 18 1009.6 - 0.0 - - - - - - -
27/04:30am 20.7 ENE 10 15 1009.2 - 0.0 - - - - - - -
27/04:00am 20.8 ENE 12 18 1009.1 - 0.0 - - - - - - -
27/03:30am 21.0 E 11 16 1009.1 - 0.0 - - - - - - -
27/03:00am 19.6 ESE 5 7 1009.0 - 0.0 - - - - - - -
27/02:30am 21.3 ESE 6 12 1008.8 - 0.0 - - - - - - -
27/02:00am 21.4 ESE 7 11 1008.9 - 0.0 - - - - - - -
27/01:30am 22.1 ESE 9 14 1009.0 - 0.0 - - - - - - -
27/01:00am 22.6 ESE 7 11 1009.3 - 0.0 - - - - - - -
27/12:30am 22.6 ESE 7 11 1009.4 - 0.0 - - - - - - -
27/12:00am 23.1 ESE 7 11 1009.5 - 0.0 - - - - - - -
 
Date/Time
WST
Temp

°C
Wind Pressure Rain
since 9am
mm
Weather Cloud Vis
km
Sea
Height
m
Swell
Dir
 
Speed
knots
Gust
knots
hPa Trend Height
m
Period
s
Dir
26/11:30pm 24.1 ESE 8 12 1009.5 - 0.0 - - - - - - -
26/11:00pm 24.9 ESE 8 13 1009.5 - 0.0 - - - - - - -
26/10:30pm 25.7 ESE 9 13 1009.7 - 0.0 - - - - - - -
26/10:00pm 25.6 ESE 8 11 1009.7 - 0.0 - - - - - - -
26/09:30pm 24.3 SE 4 5 1009.6 - 0.0 - - - - - - -
26/09:00pm 25.4 SE 5 6 1009.7 - 0.0 - - - - - - -
26/08:30pm 26.5 SE 4 5 1009.6 - 0.0 - - - - - - -
26/08:00pm 27.6 SE 4 5 1009.3 - 0.0 - - - - - - -
26/07:30pm 28.5 SE 4 6 1009.2 - 0.0 - - - - - - -
26/07:00pm 31.2 ESE 4 7 1009.2 - 0.0 - - - - - - -
26/06:30pm 31.5 S 4 6 1009.0 - 0.0 - - - - - - -
26/06:00pm 31.6 SW 6 9 1008.9 - 0.0 - - - - - - -
26/05:30pm 32.2 WSW 4 6 1009.0 - 0.0 - - - - - - -
26/05:00pm 31.7 WSW 6 8 1009.1 - 0.0 - - - - - - -
26/04:30pm 31.4 W 6 8 1009.3 - 0.0 - - - - - - -
26/04:00pm 34.7 ESE 5 10 1009.5 - 0.0 - - - - - - -
26/03:30pm 34.2 E 5 9 1009.7 - 0.0 - - - - - - -
26/03:00pm 34.1 ENE 7 11 1010.0 - 0.0 - - - - - - -
26/02:30pm 34.4 SE 5 10 1010.3 - 0.0 - - - - - - -
26/02:00pm 33.2 ESE 9 16 1010.7 - 0.0 - - - - - - -
26/01:30pm 32.8 SE 9 16 1011.2 - 0.0 - - - - - - -
26/01:00pm 32.1 E 9 13 1011.8 - 0.0 - - - - - - -
26/12:30pm 30.8 E 10 14 1012.3 - 0.0 - - - - - - -
26/12:00pm 30.5 ESE 9 15 1012.8 - 0.0 - - - - - - -
26/11:30am 29.6 ESE 8 13 1013.4 - 0.0 - - - - - - -
26/11:00am 27.9 ESE 9 13 1014.0 - 0.0 - - - - - - -
26/10:30am 26.9 E 10 16 1014.3 - 0.0 - - - - - - -
26/10:00am 25.9 ESE 9 14 1014.8 - 0.0 - - - - - - -
26/09:30am 24.4 ESE 10 14 1015.2 - 0.0 - - - - - - -
26/09:00am 23.4 E 8 11 1015.5 - 0.0 - - - - - - -
26/08:30am 21.5 E 10 13 1015.5 - 0.0 - - - - - - -
26/08:00am 20.4 E 10 17 1016.1 - 0.0 - - - - - - -
26/07:30am 19.2 ESE 8 12 1016.3 - 0.0 - - - - - - -
26/07:00am 17.9 E 11 19 1016.5 - 0.0 - - - - - - -
26/06:30am 16.6 E 9 14 1016.6 - 0.0 - - - - - - -
26/06:00am 14.7 ESE 5 6 1016.8 - 0.0 - - - - - - -
26/05:30am 14.3 ESE 5 8 1016.6 - 0.0 - - - - - - -
26/05:00am 14.6 E 8 13 1016.4 - 0.0 - - - - - - -
26/04:30am 14.6 ESE 8 13 1016.3 - 0.0 - - - - - - -
26/04:00am 14.8 ESE 11 17 1016.2 - 0.0 - - - - - - -
26/03:30am 14.8 ESE 11 19 1016.3 - 0.0 - - - - - - -
26/03:00am 15.2 ESE 12 18 1016.4 - 0.0 - - - - - - -
26/02:30am 15.5 ESE 12 17 1016.4 - 0.0 - - - - - - -
26/02:00am 15.9 ESE 12 18 1016.4 - 0.0 - - - - - - -
26/01:30am 16.8 ESE 13 20 1016.5 - 0.0 - - - - - - -
26/01:00am 17.3 ESE 10 15 1016.2 - 0.0 - - - - - - -
26/12:30am 18.4 ESE 12 20 1016.4 - 0.0 - - - - - - -
26/12:00am 19.6 ESE 11 16 1016.3 - 0.0 - - - - - - -
 
Date/Time
WST
Temp

°C
Wind Pressure Rain
since 9am
mm
Weather Cloud Vis
km
Sea
Height
m
Swell
Dir
 
Speed
knots
Gust
knots
hPa Trend Height
m
Period
s
Dir
25/11:30pm 20.7 ESE 13 19 1016.2 - 0.0 - - - - - - -
25/11:00pm 21.7 ESE 13 19 1016.0 - 0.0 - - - - - - -
25/10:30pm 22.6 ESE 12 18 1015.8 - 0.0 - - - - - - -
25/10:00pm 22.3 SE 7 10 1015.7 - 0.0 - - - - - - -
25/09:30pm 21.5 SE 6 8 1015.3 - 0.0 - - - - - - -
25/09:00pm 22.3 S 6 9 1015.2 - 0.0 - - - - - - -
25/08:30pm 23.6 SE 4 5 1014.9 - 0.0 - - - - - - -
25/08:00pm 24.5 SE 5 7 1014.5 - 0.0 - - - - - - -
25/07:30pm 25.9 SE 5 7 1014.3 - 0.0 - - - - - - -
25/07:00pm 28.1 ESE 6 10 1014.0 - 0.0 - - - - - - -
25/06:30pm 29.3 ESE 9 12 1013.8 - 0.0 - - - - - - -
25/06:00pm 30.1 ESE 9 12 1013.8 - 0.0 - - - - - - -
25/05:30pm 30.5 SE 8 13 1013.6 - 0.0 - - - - - - -
25/05:00pm 30.6 SE 8 15 1013.8 - 0.0 - - - - - - -
25/04:30pm 31.4 SE 8 13 1014.1 - 0.0 - - - - - - -
25/04:00pm 31.1 ESE 9 15 1014.4 - 0.0 - - - - - - -
25/03:30pm 31.2 ESE 9 15 1014.8 - 0.0 - - - - - - -
25/03:00pm 30.8 E 8 13 1015.1 - 0.0 - - - - - - -
25/02:30pm 30.6 ESE 7 16 1015.5 - 0.0 - - - - - - -
25/02:00pm 29.4 SE 8 13 1015.8 - 0.0 - - - - - - -
25/01:30pm 29.4 ESE 9 16 1016.2 - 0.0 - - - - - - -
25/01:00pm 28.5 SE 9 16 1016.5 - 0.0 - - - - - - -
25/12:30pm 27.7 SSE 9 14 1016.6 - 0.0 - - - - - - -
25/12:00pm 26.9 SE 12 15 1017.2 - 0.0 - - - - - - -
25/11:30am 25.6 ESE 10 15 1017.5 - 0.0 - - - - - - -
25/11:00am 25.4 SE 12 19 1017.8 - 0.0 - - - - - - -
25/10:30am 24.1 ESE 11 16 1018.1 - 0.0 - - - - - - -
25/10:00am 22.8 E 11 17 1018.5 - 0.0 - - - - - - -
25/09:30am 22.4 ESE 11 18 1018.9 - 0.0 - - - - - - -
25/09:00am 21.2 E 12 19 1018.9 - 0.0 - - - - - - -
25/08:30am 20.6 ESE 10 16 1018.9 - 0.0 - - - - - - -
25/08:00am 19.3 SE 12 16 1018.9 - 0.0 - - - - - - -
25/07:30am 18.3 ESE 10 15 1019.1 - 0.0 - - - - - - -
25/07:00am 17.1 ESE 11 15 1018.9 - 0.0 - - - - - - -
25/06:30am 16.0 SE 8 12 1018.6 - 0.0 - - - - - - -
25/06:00am 15.1 SE 7 9 1018.4 - 0.0 - - - - - - -
25/05:30am 14.8 SE 8 12 1017.9 - 0.0 - - - - - - -
25/05:00am 14.9 SE 8 11 1017.8 - 0.0 - - - - - - -
25/04:30am 15.4 SE 9 14 1017.5 - 0.0 - - - - - - -
25/04:00am 15.2 SE 7 9 1017.3 - 0.0 - - - - - - -
25/03:30am 15.5 ESE 7 11 1017.0 - 0.0 - - - - - - -
25/03:00am 15.8 SE 7 11 1017.1 - 0.0 - - - - - - -
25/02:30am 16.1 SE 8 12 1016.9 - 0.0 - - - - - - -
25/02:00am 16.7 ESE 10 15 1016.7 - 0.0 - - - - - - -
25/01:30am 17.0 ESE 11 16 1016.7 - 0.0 - - - - - - -
25/01:00am 16.9 ESE 10 17 1016.7 - 0.0 - - - - - - -
25/12:30am 17.2 SE 12 19 1016.7 - 0.0 - - - - - - -
25/12:00am 17.4 SE 10 17 1016.8 - 0.0 - - - - - - -
 
Date/Time
WST
Temp

°C
Wind Pressure Rain
since 9am
mm
Weather Cloud Vis
km
Sea
Height
m
Swell
Dir
 
Speed
knots
Gust
knots
hPa Trend Height
m
Period
s
Dir
24/11:30pm 18.0 SE 11 17 1017.0 - 0.0 - - - - - - -
24/11:00pm 18.1 SE 9 13 1016.8 - 0.0 - - - - - - -
24/10:30pm 18.5 SSE 9 15 1016.5 - 0.0 - - - - - - -
24/10:00pm 18.7 SSE 9 14 1016.5 - 0.0 - - - - - - -
24/09:30pm 18.9 SSE 9 14 1016.4 - 0.0 - - - - - - -
24/09:00pm 19.1 S 10 14 1016.1 - 0.0 - - - - - - -
24/08:30pm 19.6 S 11 16 1016.0 - 0.0 - - - - - - -
24/08:00pm 20.1 S 10 16 1015.7 - 0.0 - - - - - - -
24/07:30pm 20.8 S 11 16 1015.7 - 0.0 - - - - - - -
24/07:00pm 22.1 S 11 16 1015.3 - 0.0 - - - - - - -
24/06:30pm 23.1 S 11 15 1015.2 - 0.0 - - - - - - -
24/06:00pm 24.2 S 12 18 1014.7 - 0.0 - - - - - - -
24/05:30pm 26.3 SW 9 17 1014.4 - 0.0 - - - - - - -
24/05:00pm 25.0 WSW 9 15 1014.6 - 0.0 - - - - - - -
24/04:30pm 25.5 WSW 9 13 1014.9 - 0.0 - - - - - - -
24/04:00pm 24.3 W 10 15 1015.3 - 0.0 - - - - - - -
24/03:30pm 23.9 WSW 10 17 1015.3 - 0.0 - - - - - - -
24/03:00pm 25.6 WSW 10 14 1015.4 - 0.0 - - - - - - -
24/02:30pm 26.5 SW 7 12 1015.5 - 0.0 - - - - - - -
24/02:00pm 27.5 SSE 8 13 1015.7 - 0.0 - - - - - - -

Other Formats:

Comma delimited format used in spreadsheet applications
http://www.bom.gov.au/fwo/IDW60701/IDW60701.94604.axf

JavaScript Object Notation format (JSON) in row-major order
http://www.bom.gov.au/fwo/IDW60701/IDW60701.94604.json